createdAt,value
2022-08-20T00:04:56.434Z,19.06
2022-08-20T00:20:01.951Z,19.06
2022-08-20T00:35:08.311Z,19.06
2022-08-20T00:50:25.041Z,19.06
2022-08-20T01:05:30.943Z,18.94
2022-08-20T01:20:41.134Z,19.00
2022-08-20T01:35:47.084Z,19.00
2022-08-20T01:50:59.055Z,18.94
2022-08-20T02:06:04.632Z,18.88
2022-08-20T02:21:10.261Z,19.00
2022-08-20T02:36:18.122Z,19.00
2022-08-20T02:51:30.479Z,18.94
2022-08-20T03:06:36.283Z,18.81
2022-08-20T03:21:41.884Z,18.88
2022-08-20T03:36:47.632Z,18.94
2022-08-20T03:51:57.702Z,18.94
2022-08-20T04:07:11.943Z,18.94
2022-08-20T04:22:17.536Z,18.88
2022-08-20T04:37:24.583Z,18.88
2022-08-20T04:52:33.146Z,19.00
2022-08-20T05:07:42.522Z,19.00
2022-08-20T05:22:48.063Z,18.75
2022-08-20T05:37:54.292Z,18.81
2022-08-20T05:53:01.710Z,19.00
2022-08-20T06:08:09.619Z,18.94
2022-08-20T06:23:15.390Z,19.06
2022-08-20T06:38:21.431Z,19.06
2022-08-20T06:53:26.958Z,19.19
2022-08-20T07:08:32.473Z,19.31
2022-08-20T07:23:38.059Z,19.50
2022-08-20T07:38:46.224Z,19.63
2022-08-20T07:53:53.104Z,20.00
2022-08-20T08:08:59.907Z,20.31
2022-08-20T08:24:06.416Z,20.63
2022-08-20T08:39:12.441Z,20.81
2022-08-20T08:54:21.426Z,20.81
2022-08-20T09:09:32.603Z,21.25
2022-08-20T09:24:38.183Z,21.75
2022-08-20T09:39:44.017Z,21.75
2022-08-20T09:54:50.095Z,21.13
2022-08-20T10:09:55.741Z,21.00
2022-08-20T10:25:01.290Z,21.38
2022-08-20T10:40:09.327Z,21.25
2022-08-20T10:55:15.451Z,21.56
2022-08-20T11:10:21.060Z,21.69
2022-08-20T11:25:27.087Z,21.69
2022-08-20T11:40:33.059Z,22.06
2022-08-20T11:55:39.147Z,22.19
2022-08-20T12:10:44.677Z,22.44
2022-08-20T12:25:50.313Z,22.88
2022-08-20T12:40:55.863Z,23.00
2022-08-20T12:56:02.775Z,22.94
2022-08-20T13:11:08.278Z,22.56
2022-08-20T13:26:14.492Z,22.75
2022-08-20T13:41:20.112Z,22.31
2022-08-20T13:56:25.604Z,21.94
2022-08-20T14:11:31.251Z,21.75
2022-08-20T14:26:37.149Z,21.81
2022-08-20T14:41:42.625Z,21.94
2022-08-20T14:56:48.153Z,21.88
2022-08-20T15:11:53.641Z,21.81
2022-08-20T15:26:59.520Z,21.63
2022-08-20T15:42:06.575Z,21.75
2022-08-20T15:57:15.543Z,21.63
2022-08-20T16:12:29.022Z,21.50
2022-08-20T16:27:44.894Z,21.25
2022-08-20T16:42:52.769Z,21.13
2022-08-20T16:57:58.833Z,21.25
2022-08-20T17:13:08.114Z,21.13
2022-08-20T17:28:19.652Z,20.94
2022-08-20T17:43:29.509Z,20.94
2022-08-20T17:58:42.001Z,20.94
2022-08-20T18:14:22.373Z,20.81
2022-08-20T18:29:31.546Z,20.56
2022-08-20T18:44:44.397Z,20.44
2022-08-20T19:00:07.552Z,20.25
2022-08-20T19:15:17.876Z,20.06
2022-08-20T19:30:36.861Z,19.94
2022-08-20T19:45:46.819Z,19.94
2022-08-20T20:00:54.325Z,19.81
2022-08-20T20:16:04.146Z,19.69
2022-08-20T20:31:12.286Z,19.63
2022-08-20T20:46:20.356Z,19.50
2022-08-20T21:01:41.222Z,19.38
2022-08-20T21:16:51.914Z,19.31
2022-08-20T21:31:57.571Z,19.19
2022-08-20T21:47:04.432Z,19.06
2022-08-20T22:02:10.991Z,19.00
2022-08-20T22:17:17.194Z,18.81
2022-08-20T22:32:22.801Z,18.75
2022-08-20T22:47:44.605Z,18.63
2022-08-20T23:02:53.728Z,18.50
2022-08-20T23:18:06.954Z,18.44
2022-08-20T23:33:12.532Z,18.25
2022-08-20T23:48:18.395Z,18.19
